sensor_id;sensor_type;location;lat;lon;timestamp;P1;durP1;ratioP1;P2;durP2;ratioP2
2175;SDS011;1094;49.902;10.876;2022-07-29T00:01:48;7.70;;;5.10;;
2175;SDS011;1094;49.902;10.876;2022-07-29T00:04:13;7.70;;;5.20;;
2175;SDS011;1094;49.902;10.876;2022-07-29T00:06:40;6.67;;;5.40;;
2175;SDS011;1094;49.902;10.876;2022-07-29T00:09:06;7.13;;;4.70;;
2175;SDS011;1094;49.902;10.876;2022-07-29T00:11:32;11.83;;;5.47;;
2175;SDS011;1094;49.902;10.876;2022-07-29T00:13:58;7.03;;;5.53;;
2175;SDS011;1094;49.902;10.876;2022-07-29T00:16:24;8.40;;;5.57;;
2175;SDS011;1094;49.902;10.876;2022-07-29T00:18:50;6.80;;;4.37;;
2175;SDS011;1094;49.902;10.876;2022-07-29T00:21:16;10.73;;;5.47;;
2175;SDS011;1094;49.902;10.876;2022-07-29T00:23:42;4.50;;;4.10;;
2175;SDS011;1094;49.902;10.876;2022-07-29T00:26:08;5.60;;;4.70;;
2175;SDS011;1094;49.902;10.876;2022-07-29T00:28:34;8.00;;;5.17;;
2175;SDS011;1094;49.902;10.876;2022-07-29T00:31:00;7.83;;;5.10;;
2175;SDS011;1094;49.902;10.876;2022-07-29T00:33:26;10.90;;;6.20;;
2175;SDS011;1094;49.902;10.876;2022-07-29T00:35:52;7.50;;;5.50;;
2175;SDS011;1094;49.902;10.876;2022-07-29T00:38:18;6.33;;;4.70;;
2175;SDS011;1094;49.902;10.876;2022-07-29T00:40:45;7.20;;;5.50;;
2175;SDS011;1094;49.902;10.876;2022-07-29T00:43:12;12.57;;;4.80;;
2175;SDS011;1094;49.902;10.876;2022-07-29T00:45:38;5.90;;;4.73;;
2175;SDS011;1094;49.902;10.876;2022-07-29T00:48:05;6.87;;;4.23;;
2175;SDS011;1094;49.902;10.876;2022-07-29T00:50:32;7.80;;;4.63;;
2175;SDS011;1094;49.902;10.876;2022-07-29T00:52:58;6.90;;;4.20;;
2175;SDS011;1094;49.902;10.876;2022-07-29T00:55:24;6.40;;;5.03;;
2175;SDS011;1094;49.902;10.876;2022-07-29T00:57:50;8.77;;;4.63;;
2175;SDS011;1094;49.902;10.876;2022-07-29T01:00:18;8.17;;;5.07;;
2175;SDS011;1094;49.902;10.876;2022-07-29T01:02:45;5.37;;;4.40;;
2175;SDS011;1094;49.902;10.876;2022-07-29T01:05:13;4.40;;;4.00;;
2175;SDS011;1094;49.902;10.876;2022-07-29T01:07:39;6.00;;;4.20;;
2175;SDS011;1094;49.902;10.876;2022-07-29T01:10:06;7.87;;;4.90;;
2175;SDS011;1094;49.902;10.876;2022-07-29T01:12:32;7.10;;;4.40;;
2175;SDS011;1094;49.902;10.876;2022-07-29T01:15:00;7.03;;;4.30;;
2175;SDS011;1094;49.902;10.876;2022-07-29T01:17:27;8.87;;;4.20;;
2175;SDS011;1094;49.902;10.876;2022-07-29T01:27:38;5.83;;;4.23;;
2175;SDS011;1094;49.902;10.876;2022-07-29T01:30:07;6.33;;;4.33;;
2175;SDS011;1094;49.902;10.876;2022-07-29T01:32:34;5.87;;;4.10;;
2175;SDS011;1094;49.902;10.876;2022-07-29T01:37:37;7.23;;;4.60;;
2175;SDS011;1094;49.902;10.876;2022-07-29T01:40:05;7.90;;;4.10;;
2175;SDS011;1094;49.902;10.876;2022-07-29T01:42:35;6.30;;;4.13;;
2175;SDS011;1094;49.902;10.876;2022-07-29T01:50:22;7.30;;;4.43;;
2175;SDS011;1094;49.902;10.876;2022-07-29T01:52:54;6.00;;;4.07;;
2175;SDS011;1094;49.902;10.876;2022-07-29T01:55:20;6.73;;;3.90;;
2175;SDS011;1094;49.902;10.876;2022-07-29T01:57:48;13.20;;;4.70;;
2175;SDS011;1094;49.902;10.876;2022-07-29T02:00:15;5.53;;;4.13;;
2175;SDS011;1094;49.902;10.876;2022-07-29T02:02:42;9.70;;;4.40;;
2175;SDS011;1094;49.902;10.876;2022-07-29T02:05:10;7.33;;;4.27;;
2175;SDS011;1094;49.902;10.876;2022-07-29T02:07:37;6.70;;;4.20;;
2175;SDS011;1094;49.902;10.876;2022-07-29T02:10:04;7.43;;;5.20;;
2175;SDS011;1094;49.902;10.876;2022-07-29T02:12:31;6.27;;;4.20;;
2175;SDS011;1094;49.902;10.876;2022-07-29T02:14:58;6.67;;;4.20;;
2175;SDS011;1094;49.902;10.876;2022-07-29T02:17:48;7.00;;;3.80;;
2175;SDS011;1094;49.902;10.876;2022-07-29T02:20:12;4.60;;;3.60;;
2175;SDS011;1094;49.902;10.876;2022-07-29T02:22:39;5.03;;;3.67;;
2175;SDS011;1094;49.902;10.876;2022-07-29T02:25:06;6.63;;;3.93;;
2175;SDS011;1094;49.902;10.876;2022-07-29T02:27:34;5.27;;;3.73;;
2175;SDS011;1094;49.902;10.876;2022-07-29T02:30:00;8.53;;;4.47;;
2175;SDS011;1094;49.902;10.876;2022-07-29T02:32:27;6.13;;;4.27;;
2175;SDS011;1094;49.902;10.876;2022-07-29T02:34:54;5.53;;;3.93;;
2175;SDS011;1094;49.902;10.876;2022-07-29T02:37:21;6.43;;;3.73;;
2175;SDS011;1094;49.902;10.876;2022-07-29T02:39:48;5.53;;;4.07;;
2175;SDS011;1094;49.902;10.876;2022-07-29T02:42:16;7.40;;;4.10;;
2175;SDS011;1094;49.902;10.876;2022-07-29T02:44:42;6.27;;;4.30;;
2175;SDS011;1094;49.902;10.876;2022-07-29T02:49:48;5.87;;;5.27;;
2175;SDS011;1094;49.902;10.876;2022-07-29T02:52:28;6.73;;;3.73;;
2175;SDS011;1094;49.902;10.876;2022-07-29T02:55:31;9.53;;;4.03;;
2175;SDS011;1094;49.902;10.876;2022-07-29T02:57:51;5.17;;;4.50;;
2175;SDS011;1094;49.902;10.876;2022-07-29T03:00:19;9.73;;;3.60;;
2175;SDS011;1094;49.902;10.876;2022-07-29T03:02:48;4.93;;;3.70;;
2175;SDS011;1094;49.902;10.876;2022-07-29T03:05:16;7.20;;;4.30;;
2175;SDS011;1094;49.902;10.876;2022-07-29T03:07:45;16.43;;;4.87;;
2175;SDS011;1094;49.902;10.876;2022-07-29T03:10:11;7.87;;;4.40;;
2175;SDS011;1094;49.902;10.876;2022-07-29T03:12:38;6.50;;;4.10;;
2175;SDS011;1094;49.902;10.876;2022-07-29T03:15:04;6.80;;;3.73;;
2175;SDS011;1094;49.902;10.876;2022-07-29T03:17:31;5.70;;;4.03;;
2175;SDS011;1094;49.902;10.876;2022-07-29T03:19:57;5.10;;;4.20;;
2175;SDS011;1094;49.902;10.876;2022-07-29T03:22:24;6.93;;;4.57;;
2175;SDS011;1094;49.902;10.876;2022-07-29T03:24:50;5.50;;;4.37;;
2175;SDS011;1094;49.902;10.876;2022-07-29T03:27:16;7.53;;;4.63;;
2175;SDS011;1094;49.902;10.876;2022-07-29T03:29:42;5.00;;;3.60;;
2175;SDS011;1094;49.902;10.876;2022-07-29T03:32:08;6.17;;;4.30;;
2175;SDS011;1094;49.902;10.876;2022-07-29T03:34:35;8.60;;;4.50;;
2175;SDS011;1094;49.902;10.876;2022-07-29T03:37:01;5.27;;;4.07;;
2175;SDS011;1094;49.902;10.876;2022-07-29T03:39:28;7.00;;;4.30;;
2175;SDS011;1094;49.902;10.876;2022-07-29T03:41:55;9.63;;;4.10;;
2175;SDS011;1094;49.902;10.876;2022-07-29T03:44:22;5.07;;;4.10;;
2175;SDS011;1094;49.902;10.876;2022-07-29T03:46:49;4.97;;;4.17;;
2175;SDS011;1094;49.902;10.876;2022-07-29T03:49:16;6.67;;;4.33;;
2175;SDS011;1094;49.902;10.876;2022-07-29T03:51:44;4.90;;;4.10;;
2175;SDS011;1094;49.902;10.876;2022-07-29T03:54:10;5.43;;;4.70;;
2175;SDS011;1094;49.902;10.876;2022-07-29T03:56:38;5.10;;;4.20;;
2175;SDS011;1094;49.902;10.876;2022-07-29T03:59:05;5.03;;;4.40;;
2175;SDS011;1094;49.902;10.876;2022-07-29T04:01:32;7.30;;;4.63;;
2175;SDS011;1094;49.902;10.876;2022-07-29T04:03:59;5.10;;;4.20;;
2175;SDS011;1094;49.902;10.876;2022-07-29T04:06:25;5.77;;;3.97;;
2175;SDS011;1094;49.902;10.876;2022-07-29T04:08:51;6.00;;;5.33;;
2175;SDS011;1094;49.902;10.876;2022-07-29T04:11:17;8.83;;;4.60;;
2175;SDS011;1094;49.902;10.876;2022-07-29T04:13:43;4.47;;;4.00;;
2175;SDS011;1094;49.902;10.876;2022-07-29T04:16:09;9.63;;;4.30;;
2175;SDS011;1094;49.902;10.876;2022-07-29T04:18:35;7.47;;;4.47;;
2175;SDS011;1094;49.902;10.876;2022-07-29T04:21:01;7.40;;;4.23;;
2175;SDS011;1094;49.902;10.876;2022-07-29T04:23:29;10.57;;;3.80;;
2175;SDS011;1094;49.902;10.876;2022-07-29T04:25:58;4.63;;;4.20;;
2175;SDS011;1094;49.902;10.876;2022-07-29T04:28:25;8.73;;;4.33;;
2175;SDS011;1094;49.902;10.876;2022-07-29T04:30:51;15.50;;;4.20;;
2175;SDS011;1094;49.902;10.876;2022-07-29T04:33:17;7.20;;;4.23;;
2175;SDS011;1094;49.902;10.876;2022-07-29T04:35:43;6.30;;;4.13;;
2175;SDS011;1094;49.902;10.876;2022-07-29T04:38:09;4.60;;;3.80;;
2175;SDS011;1094;49.902;10.876;2022-07-29T04:40:35;5.47;;;3.77;;
2175;SDS011;1094;49.902;10.876;2022-07-29T04:43:01;4.40;;;4.00;;
2175;SDS011;1094;49.902;10.876;2022-07-29T04:45:27;5.30;;;4.80;;
2175;SDS011;1094;49.902;10.876;2022-07-29T04:47:54;6.77;;;3.83;;
2175;SDS011;1094;49.902;10.876;2022-07-29T04:50:20;6.73;;;3.53;;
2175;SDS011;1094;49.902;10.876;2022-07-29T04:52:47;6.17;;;3.50;;
2175;SDS011;1094;49.902;10.876;2022-07-29T04:55:12;8.60;;;4.00;;
2175;SDS011;1094;49.902;10.876;2022-07-29T04:57:38;6.37;;;3.70;;
2175;SDS011;1094;49.902;10.876;2022-07-29T05:00:05;5.87;;;3.77;;
2175;SDS011;1094;49.902;10.876;2022-07-29T05:02:31;9.17;;;3.83;;
2175;SDS011;1094;49.902;10.876;2022-07-29T05:04:57;4.90;;;3.53;;
2175;SDS011;1094;49.902;10.876;2022-07-29T05:07:23;5.73;;;3.93;;
2175;SDS011;1094;49.902;10.876;2022-07-29T05:09:49;4.70;;;4.17;;
2175;SDS011;1094;49.902;10.876;2022-07-29T05:12:15;6.47;;;4.00;;
2175;SDS011;1094;49.902;10.876;2022-07-29T05:14:41;5.20;;;3.60;;
2175;SDS011;1094;49.902;10.876;2022-07-29T05:17:07;4.40;;;3.70;;
2175;SDS011;1094;49.902;10.876;2022-07-29T05:19:33;5.60;;;3.20;;
2175;SDS011;1094;49.902;10.876;2022-07-29T05:21:59;11.37;;;3.97;;
2175;SDS011;1094;49.902;10.876;2022-07-29T05:24:25;6.10;;;3.97;;
2175;SDS011;1094;49.902;10.876;2022-07-29T05:26:51;8.80;;;3.70;;
2175;SDS011;1094;49.902;10.876;2022-07-29T05:29:17;5.90;;;3.63;;
2175;SDS011;1094;49.902;10.876;2022-07-29T05:31:43;8.13;;;5.17;;
2175;SDS011;1094;49.902;10.876;2022-07-29T05:34:09;5.93;;;3.50;;
2175;SDS011;1094;49.902;10.876;2022-07-29T05:36:35;6.27;;;3.30;;
2175;SDS011;1094;49.902;10.876;2022-07-29T05:39:00;8.23;;;4.30;;
2175;SDS011;1094;49.902;10.876;2022-07-29T05:41:27;9.80;;;4.00;;
2175;SDS011;1094;49.902;10.876;2022-07-29T05:43:53;8.80;;;3.97;;
2175;SDS011;1094;49.902;10.876;2022-07-29T05:46:19;6.53;;;3.90;;
2175;SDS011;1094;49.902;10.876;2022-07-29T05:48:45;9.87;;;4.20;;
2175;SDS011;1094;49.902;10.876;2022-07-29T05:51:11;9.90;;;4.07;;
2175;SDS011;1094;49.902;10.876;2022-07-29T05:53:37;7.90;;;3.83;;
2175;SDS011;1094;49.902;10.876;2022-07-29T05:56:03;6.30;;;4.27;;
2175;SDS011;1094;49.902;10.876;2022-07-29T05:58:30;6.80;;;4.00;;
2175;SDS011;1094;49.902;10.876;2022-07-29T06:00:56;9.60;;;3.30;;
2175;SDS011;1094;49.902;10.876;2022-07-29T06:03:25;9.10;;;4.10;;
2175;SDS011;1094;49.902;10.876;2022-07-29T06:05:51;8.80;;;3.70;;
2175;SDS011;1094;49.902;10.876;2022-07-29T06:08:17;3.47;;;3.13;;
2175;SDS011;1094;49.902;10.876;2022-07-29T06:10:43;9.23;;;3.40;;
2175;SDS011;1094;49.902;10.876;2022-07-29T06:13:10;6.10;;;3.00;;
2175;SDS011;1094;49.902;10.876;2022-07-29T06:15:36;6.53;;;3.83;;
2175;SDS011;1094;49.902;10.876;2022-07-29T06:18:02;6.57;;;3.07;;
2175;SDS011;1094;49.902;10.876;2022-07-29T06:20:29;4.57;;;2.90;;
2175;SDS011;1094;49.902;10.876;2022-07-29T06:22:55;5.57;;;3.50;;
2175;SDS011;1094;49.902;10.876;2022-07-29T06:25:21;5.43;;;2.90;;
2175;SDS011;1094;49.902;10.876;2022-07-29T06:27:48;7.37;;;3.40;;
2175;SDS011;1094;49.902;10.876;2022-07-29T06:30:13;9.03;;;3.03;;
2175;SDS011;1094;49.902;10.876;2022-07-29T06:32:39;7.87;;;3.53;;
2175;SDS011;1094;49.902;10.876;2022-07-29T06:35:05;7.50;;;2.80;;
2175;SDS011;1094;49.902;10.876;2022-07-29T06:37:31;8.67;;;3.10;;
2175;SDS011;1094;49.902;10.876;2022-07-29T06:39:57;12.30;;;3.03;;
2175;SDS011;1094;49.902;10.876;2022-07-29T06:43:02;7.87;;;3.00;;
2175;SDS011;1094;49.902;10.876;2022-07-29T06:45:28;8.20;;;2.60;;
2175;SDS011;1094;49.902;10.876;2022-07-29T06:47:54;6.10;;;2.22;;
2175;SDS011;1094;49.902;10.876;2022-07-29T06:50:20;5.50;;;2.65;;
2175;SDS011;1094;49.902;10.876;2022-07-29T06:52:46;12.80;;;2.78;;
2175;SDS011;1094;49.902;10.876;2022-07-29T06:55:12;5.32;;;2.55;;
2175;SDS011;1094;49.902;10.876;2022-07-29T06:57:39;5.60;;;3.13;;
2175;SDS011;1094;49.902;10.876;2022-07-29T07:00:05;6.10;;;3.28;;
2175;SDS011;1094;49.902;10.876;2022-07-29T07:02:31;5.82;;;2.72;;
2175;SDS011;1094;49.902;10.876;2022-07-29T07:04:57;7.75;;;2.70;;
2175;SDS011;1094;49.902;10.876;2022-07-29T07:07:23;2.13;;;1.88;;
2175;SDS011;1094;49.902;10.876;2022-07-29T07:09:49;2.95;;;2.15;;
2175;SDS011;1094;49.902;10.876;2022-07-29T07:12:15;9.80;;;2.33;;
2175;SDS011;1094;49.902;10.876;2022-07-29T07:14:41;8.55;;;2.35;;
2175;SDS011;1094;49.902;10.876;2022-07-29T07:17:07;6.15;;;2.28;;
2175;SDS011;1094;49.902;10.876;2022-07-29T07:19:33;7.57;;;2.23;;
2175;SDS011;1094;49.902;10.876;2022-07-29T07:21:59;2.47;;;2.27;;
2175;SDS011;1094;49.902;10.876;2022-07-29T07:24:25;4.40;;;2.23;;
2175;SDS011;1094;49.902;10.876;2022-07-29T07:26:51;6.30;;;2.33;;
2175;SDS011;1094;49.902;10.876;2022-07-29T07:29:17;2.37;;;2.17;;
2175;SDS011;1094;49.902;10.876;2022-07-29T07:31:43;5.60;;;2.23;;
2175;SDS011;1094;49.902;10.876;2022-07-29T07:34:10;2.57;;;2.37;;
2175;SDS011;1094;49.902;10.876;2022-07-29T07:36:36;2.30;;;2.10;;
2175;SDS011;1094;49.902;10.876;2022-07-29T07:39:02;2.50;;;2.17;;
2175;SDS011;1094;49.902;10.876;2022-07-29T07:41:29;2.83;;;2.20;;
2175;SDS011;1094;49.902;10.876;2022-07-29T07:43:55;2.27;;;2.10;;
2175;SDS011;1094;49.902;10.876;2022-07-29T07:46:21;3.70;;;2.63;;
2175;SDS011;1094;49.902;10.876;2022-07-29T07:48:47;3.43;;;2.20;;
2175;SDS011;1094;49.902;10.876;2022-07-29T07:51:13;2.80;;;2.50;;
2175;SDS011;1094;49.902;10.876;2022-07-29T07:53:39;7.70;;;2.40;;
2175;SDS011;1094;49.902;10.876;2022-07-29T07:56:05;3.67;;;2.20;;
2175;SDS011;1094;49.902;10.876;2022-07-29T07:58:31;2.70;;;2.47;;
2175;SDS011;1094;49.902;10.876;2022-07-29T08:00:57;3.50;;;2.47;;
2175;SDS011;1094;49.902;10.876;2022-07-29T08:03:23;5.77;;;2.40;;
2175;SDS011;1094;49.902;10.876;2022-07-29T08:05:49;2.73;;;2.50;;
2175;SDS011;1094;49.902;10.876;2022-07-29T08:08:16;3.60;;;2.60;;
2175;SDS011;1094;49.902;10.876;2022-07-29T08:10:42;4.43;;;2.73;;
2175;SDS011;1094;49.902;10.876;2022-07-29T08:13:17;6.57;;;2.33;;
2175;SDS011;1094;49.902;10.876;2022-07-29T08:15:43;5.23;;;2.73;;
2175;SDS011;1094;49.902;10.876;2022-07-29T08:18:10;2.50;;;2.30;;
2175;SDS011;1094;49.902;10.876;2022-07-29T08:20:36;6.80;;;3.10;;
2175;SDS011;1094;49.902;10.876;2022-07-29T08:23:04;4.57;;;2.90;;
2175;SDS011;1094;49.902;10.876;2022-07-29T08:25:31;5.13;;;2.63;;
2175;SDS011;1094;49.902;10.876;2022-07-29T08:27:57;3.00;;;2.57;;
2175;SDS011;1094;49.902;10.876;2022-07-29T08:30:23;4.73;;;2.83;;
2175;SDS011;1094;49.902;10.876;2022-07-29T08:32:49;2.87;;;2.30;;
2175;SDS011;1094;49.902;10.876;2022-07-29T08:35:17;4.90;;;2.23;;
2175;SDS011;1094;49.902;10.876;2022-07-29T08:37:43;3.17;;;2.53;;
2175;SDS011;1094;49.902;10.876;2022-07-29T08:40:10;4.33;;;2.40;;
2175;SDS011;1094;49.902;10.876;2022-07-29T08:42:36;4.60;;;2.30;;
2175;SDS011;1094;49.902;10.876;2022-07-29T08:45:03;5.10;;;3.00;;
2175;SDS011;1094;49.902;10.876;2022-07-29T08:47:29;6.80;;;2.50;;
2175;SDS011;1094;49.902;10.876;2022-07-29T08:49:55;4.33;;;2.77;;
2175;SDS011;1094;49.902;10.876;2022-07-29T08:52:21;7.47;;;2.65;;
2175;SDS011;1094;49.902;10.876;2022-07-29T08:54:50;6.05;;;2.65;;
2175;SDS011;1094;49.902;10.876;2022-07-29T08:57:17;5.13;;;2.22;;
2175;SDS011;1094;49.902;10.876;2022-07-29T08:59:43;5.63;;;2.30;;
2175;SDS011;1094;49.902;10.876;2022-07-29T09:02:12;5.88;;;2.50;;
2175;SDS011;1094;49.902;10.876;2022-07-29T09:04:41;4.10;;;2.20;;
2175;SDS011;1094;49.902;10.876;2022-07-29T09:07:07;5.68;;;2.67;;
2175;SDS011;1094;49.902;10.876;2022-07-29T09:09:34;5.25;;;2.60;;
2175;SDS011;1094;49.902;10.876;2022-07-29T09:12:00;5.03;;;2.60;;
2175;SDS011;1094;49.902;10.876;2022-07-29T09:14:28;2.95;;;2.65;;
2175;SDS011;1094;49.902;10.876;2022-07-29T09:16:55;3.17;;;2.87;;
2175;SDS011;1094;49.902;10.876;2022-07-29T09:19:22;4.23;;;2.30;;
2175;SDS011;1094;49.902;10.876;2022-07-29T09:21:49;6.90;;;2.70;;
2175;SDS011;1094;49.902;10.876;2022-07-29T09:24:25;3.10;;;2.80;;
2175;SDS011;1094;49.902;10.876;2022-07-29T09:26:51;4.90;;;2.70;;
2175;SDS011;1094;49.902;10.876;2022-07-29T09:29:18;9.93;;;3.63;;
2175;SDS011;1094;49.902;10.876;2022-07-29T09:31:45;4.77;;;3.00;;
2175;SDS011;1094;49.902;10.876;2022-07-29T09:34:12;4.07;;;3.30;;
2175;SDS011;1094;49.902;10.876;2022-07-29T09:36:39;3.77;;;2.50;;
2175;SDS011;1094;49.902;10.876;2022-07-29T09:39:05;4.97;;;3.43;;
2175;SDS011;1094;49.902;10.876;2022-07-29T09:41:53;4.43;;;3.10;;
2175;SDS011;1094;49.902;10.876;2022-07-29T09:44:18;2.80;;;2.60;;
2175;SDS011;1094;49.902;10.876;2022-07-29T09:49:19;6.22;;;2.70;;
2175;SDS011;1094;49.902;10.876;2022-07-29T09:51:45;3.10;;;2.70;;
2175;SDS011;1094;49.902;10.876;2022-07-29T09:54:21;4.38;;;2.45;;
2175;SDS011;1094;49.902;10.876;2022-07-29T09:56:48;2.40;;;2.20;;
2175;SDS011;1094;49.902;10.876;2022-07-29T09:59:14;2.83;;;2.38;;
2175;SDS011;1094;49.902;10.876;2022-07-29T10:01:40;4.05;;;2.30;;
2175;SDS011;1094;49.902;10.876;2022-07-29T10:04:06;4.07;;;2.40;;
2175;SDS011;1094;49.902;10.876;2022-07-29T10:06:32;3.13;;;2.30;;
2175;SDS011;1094;49.902;10.876;2022-07-29T10:09:10;2.83;;;2.05;;
2175;SDS011;1094;49.902;10.876;2022-07-29T10:11:37;1.95;;;1.83;;
2175;SDS011;1094;49.902;10.876;2022-07-29T10:14:03;4.80;;;2.40;;
2175;SDS011;1094;49.902;10.876;2022-07-29T10:16:30;3.30;;;3.00;;
2175;SDS011;1094;49.902;10.876;2022-07-29T10:18:58;8.20;;;2.72;;
2175;SDS011;1094;49.902;10.876;2022-07-29T10:21:26;5.45;;;2.88;;
2175;SDS011;1094;49.902;10.876;2022-07-29T10:23:52;4.50;;;2.60;;
2175;SDS011;1094;49.902;10.876;2022-07-29T10:26:19;6.37;;;3.00;;
2175;SDS011;1094;49.902;10.876;2022-07-29T10:28:45;4.30;;;2.80;;
2175;SDS011;1094;49.902;10.876;2022-07-29T10:34:09;3.20;;;2.77;;
2175;SDS011;1094;49.902;10.876;2022-07-29T10:41:56;6.30;;;3.30;;
2175;SDS011;1094;49.902;10.876;2022-07-29T10:44:25;6.83;;;3.57;;
2175;SDS011;1094;49.902;10.876;2022-07-29T10:46:52;3.97;;;3.47;;
2175;SDS011;1094;49.902;10.876;2022-07-29T10:49:19;3.50;;;3.20;;
2175;SDS011;1094;49.902;10.876;2022-07-29T10:57:15;4.53;;;3.33;;
2175;SDS011;1094;49.902;10.876;2022-07-29T10:59:42;5.70;;;3.17;;
2175;SDS011;1094;49.902;10.876;2022-07-29T11:07:21;6.20;;;3.00;;
2175;SDS011;1094;49.902;10.876;2022-07-29T11:15:13;3.77;;;3.00;;
2175;SDS011;1094;49.902;10.876;2022-07-29T11:22:57;4.50;;;2.80;;
2175;SDS011;1094;49.902;10.876;2022-07-29T11:25:23;10.83;;;3.73;;
2175;SDS011;1094;49.902;10.876;2022-07-29T11:27:49;4.23;;;3.10;;
2175;SDS011;1094;49.902;10.876;2022-07-29T11:30:16;4.03;;;3.00;;
2175;SDS011;1094;49.902;10.876;2022-07-29T11:32:43;3.40;;;2.60;;
2175;SDS011;1094;49.902;10.876;2022-07-29T11:35:22;6.23;;;2.87;;
2175;SDS011;1094;49.902;10.876;2022-07-29T11:40:33;2.95;;;2.60;;
2175;SDS011;1094;49.902;10.876;2022-07-29T11:42:59;5.50;;;2.58;;
2175;SDS011;1094;49.902;10.876;2022-07-29T11:45:25;3.35;;;2.40;;
2175;SDS011;1094;49.902;10.876;2022-07-29T11:47:55;3.33;;;3.08;;
2175;SDS011;1094;49.902;10.876;2022-07-29T11:50:30;4.40;;;2.70;;
2175;SDS011;1094;49.902;10.876;2022-07-29T11:52:57;6.82;;;2.72;;
2175;SDS011;1094;49.902;10.876;2022-07-29T11:55:23;5.30;;;3.03;;
2175;SDS011;1094;49.902;10.876;2022-07-29T11:57:50;3.35;;;2.60;;
2175;SDS011;1094;49.902;10.876;2022-07-29T12:02:52;4.05;;;2.67;;
2175;SDS011;1094;49.902;10.876;2022-07-29T12:05:18;3.75;;;2.50;;
2175;SDS011;1094;49.902;10.876;2022-07-29T12:07:45;6.95;;;2.50;;
2175;SDS011;1094;49.902;10.876;2022-07-29T12:10:11;2.72;;;2.45;;
2175;SDS011;1094;49.902;10.876;2022-07-29T12:12:37;2.85;;;2.40;;
2175;SDS011;1094;49.902;10.876;2022-07-29T12:15:16;2.95;;;2.50;;
2175;SDS011;1094;49.902;10.876;2022-07-29T12:17:44;5.50;;;2.75;;
2175;SDS011;1094;49.902;10.876;2022-07-29T12:22:40;3.50;;;2.40;;
2175;SDS011;1094;49.902;10.876;2022-07-29T12:25:07;3.88;;;2.60;;
2175;SDS011;1094;49.902;10.876;2022-07-29T12:27:34;4.22;;;2.10;;
2175;SDS011;1094;49.902;10.876;2022-07-29T12:30:01;4.22;;;2.55;;
2175;SDS011;1094;49.902;10.876;2022-07-29T12:32:37;5.43;;;2.55;;
2175;SDS011;1094;49.902;10.876;2022-07-29T12:35:19;3.22;;;2.25;;
2175;SDS011;1094;49.902;10.876;2022-07-29T12:37:46;6.28;;;2.33;;
2175;SDS011;1094;49.902;10.876;2022-07-29T12:40:14;3.72;;;2.50;;
2175;SDS011;1094;49.902;10.876;2022-07-29T12:42:41;3.17;;;2.40;;
2175;SDS011;1094;49.902;10.876;2022-07-29T12:45:07;2.42;;;2.20;;
2175;SDS011;1094;49.902;10.876;2022-07-29T12:47:33;3.33;;;2.70;;
2175;SDS011;1094;49.902;10.876;2022-07-29T12:50:16;2.58;;;2.08;;
2175;SDS011;1094;49.902;10.876;2022-07-29T12:52:43;6.97;;;3.00;;
2175;SDS011;1094;49.902;10.876;2022-07-29T12:55:09;4.30;;;2.70;;
2175;SDS011;1094;49.902;10.876;2022-07-29T12:57:45;7.40;;;2.70;;
2175;SDS011;1094;49.902;10.876;2022-07-29T13:00:12;5.00;;;3.17;;
2175;SDS011;1094;49.902;10.876;2022-07-29T13:02:39;3.23;;;2.93;;
2175;SDS011;1094;49.902;10.876;2022-07-29T13:05:06;3.90;;;3.20;;
2175;SDS011;1094;49.902;10.876;2022-07-29T13:07:33;3.23;;;2.93;;
2175;SDS011;1094;49.902;10.876;2022-07-29T13:10:13;3.70;;;3.03;;
2175;SDS011;1094;49.902;10.876;2022-07-29T13:13:00;3.80;;;2.90;;
2175;SDS011;1094;49.902;10.876;2022-07-29T13:15:25;5.40;;;3.20;;
2175;SDS011;1094;49.902;10.876;2022-07-29T13:17:51;7.00;;;3.73;;
2175;SDS011;1094;49.902;10.876;2022-07-29T13:20:17;5.00;;;3.50;;
2175;SDS011;1094;49.902;10.876;2022-07-29T13:22:46;3.73;;;3.20;;
2175;SDS011;1094;49.902;10.876;2022-07-29T13:25:12;5.70;;;3.50;;
2175;SDS011;1094;49.902;10.876;2022-07-29T13:27:38;3.63;;;3.33;;
2175;SDS011;1094;49.902;10.876;2022-07-29T13:30:08;6.03;;;3.50;;
2175;SDS011;1094;49.902;10.876;2022-07-29T13:32:34;6.53;;;3.40;;
2175;SDS011;1094;49.902;10.876;2022-07-29T13:35:02;4.37;;;3.97;;
2175;SDS011;1094;49.902;10.876;2022-07-29T13:37:28;4.97;;;3.73;;
2175;SDS011;1094;49.902;10.876;2022-07-29T13:39:55;3.43;;;3.13;;
2175;SDS011;1094;49.902;10.876;2022-07-29T13:42:22;7.87;;;3.50;;
2175;SDS011;1094;49.902;10.876;2022-07-29T13:44:48;3.90;;;3.50;;
2175;SDS011;1094;49.902;10.876;2022-07-29T13:47:16;4.40;;;3.77;;
2175;SDS011;1094;49.902;10.876;2022-07-29T13:49:42;8.60;;;3.60;;
2175;SDS011;1094;49.902;10.876;2022-07-29T13:52:08;4.80;;;3.37;;
2175;SDS011;1094;49.902;10.876;2022-07-29T13:54:34;5.60;;;3.83;;
2175;SDS011;1094;49.902;10.876;2022-07-29T13:57:03;6.13;;;4.27;;
2175;SDS011;1094;49.902;10.876;2022-07-29T13:59:29;5.70;;;3.67;;
2175;SDS011;1094;49.902;10.876;2022-07-29T14:01:55;6.00;;;3.73;;
2175;SDS011;1094;49.902;10.876;2022-07-29T14:04:21;7.90;;;3.87;;
2175;SDS011;1094;49.902;10.876;2022-07-29T14:06:48;12.73;;;4.63;;
2175;SDS011;1094;49.902;10.876;2022-07-29T14:09:14;3.80;;;3.43;;
2175;SDS011;1094;49.902;10.876;2022-07-29T14:11:40;5.33;;;4.20;;
2175;SDS011;1094;49.902;10.876;2022-07-29T14:14:06;5.67;;;3.93;;
2175;SDS011;1094;49.902;10.876;2022-07-29T14:16:32;6.03;;;4.23;;
2175;SDS011;1094;49.902;10.876;2022-07-29T14:18:58;5.07;;;4.57;;
2175;SDS011;1094;49.902;10.876;2022-07-29T14:21:24;4.87;;;3.83;;
2175;SDS011;1094;49.902;10.876;2022-07-29T14:23:50;4.50;;;4.10;;
2175;SDS011;1094;49.902;10.876;2022-07-29T14:26:17;7.70;;;4.30;;
2175;SDS011;1094;49.902;10.876;2022-07-29T14:28:43;4.20;;;3.90;;
2175;SDS011;1094;49.902;10.876;2022-07-29T14:31:09;6.00;;;4.47;;
2175;SDS011;1094;49.902;10.876;2022-07-29T14:33:35;5.90;;;4.23;;
2175;SDS011;1094;49.902;10.876;2022-07-29T14:36:01;7.70;;;5.13;;
2175;SDS011;1094;49.902;10.876;2022-07-29T14:38:27;6.17;;;4.67;;
2175;SDS011;1094;49.902;10.876;2022-07-29T14:40:53;5.97;;;4.60;;
2175;SDS011;1094;49.902;10.876;2022-07-29T14:43:19;5.00;;;4.50;;
2175;SDS011;1094;49.902;10.876;2022-07-29T14:45:45;5.37;;;4.90;;
2175;SDS011;1094;49.902;10.876;2022-07-29T14:48:11;7.33;;;4.93;;
2175;SDS011;1094;49.902;10.876;2022-07-29T14:50:37;4.70;;;4.30;;
2175;SDS011;1094;49.902;10.876;2022-07-29T14:53:03;5.07;;;4.63;;
2175;SDS011;1094;49.902;10.876;2022-07-29T14:55:29;5.03;;;4.53;;
2175;SDS011;1094;49.902;10.876;2022-07-29T14:57:55;5.63;;;4.60;;
2175;SDS011;1094;49.902;10.876;2022-07-29T15:00:21;6.07;;;5.13;;
2175;SDS011;1094;49.902;10.876;2022-07-29T15:02:48;4.90;;;4.50;;
2175;SDS011;1094;49.902;10.876;2022-07-29T15:05:14;5.47;;;4.97;;
2175;SDS011;1094;49.902;10.876;2022-07-29T15:07:40;5.87;;;5.03;;
2175;SDS011;1094;49.902;10.876;2022-07-29T15:10:06;6.83;;;5.00;;
2175;SDS011;1094;49.902;10.876;2022-07-29T15:12:32;7.53;;;4.97;;
2175;SDS011;1094;49.902;10.876;2022-07-29T15:14:58;6.67;;;4.17;;
2175;SDS011;1094;49.902;10.876;2022-07-29T15:17:24;6.40;;;3.80;;
2175;SDS011;1094;49.902;10.876;2022-07-29T15:19:50;6.70;;;4.43;;
2175;SDS011;1094;49.902;10.876;2022-07-29T15:22:17;11.77;;;4.90;;
2175;SDS011;1094;49.902;10.876;2022-07-29T15:24:43;5.40;;;4.33;;
2175;SDS011;1094;49.902;10.876;2022-07-29T15:27:09;7.23;;;4.33;;
2175;SDS011;1094;49.902;10.876;2022-07-29T15:29:41;8.87;;;3.70;;
2175;SDS011;1094;49.902;10.876;2022-07-29T15:32:07;6.27;;;3.50;;
2175;SDS011;1094;49.902;10.876;2022-07-29T15:34:33;4.83;;;3.80;;
2175;SDS011;1094;49.902;10.876;2022-07-29T15:36:59;5.13;;;4.50;;
2175;SDS011;1094;49.902;10.876;2022-07-29T15:39:25;7.80;;;4.83;;
2175;SDS011;1094;49.902;10.876;2022-07-29T15:41:52;6.00;;;4.33;;
2175;SDS011;1094;49.902;10.876;2022-07-29T15:44:18;6.00;;;5.40;;
2175;SDS011;1094;49.902;10.876;2022-07-29T15:46:45;5.77;;;5.27;;
2175;SDS011;1094;49.902;10.876;2022-07-29T15:49:33;10.37;;;6.20;;
2175;SDS011;1094;49.902;10.876;2022-07-29T15:52:00;16.83;;;8.50;;
2175;SDS011;1094;49.902;10.876;2022-07-29T15:54:27;1.77;;;1.33;;
2175;SDS011;1094;49.902;10.876;2022-07-29T15:56:53;0.90;;;0.80;;
2175;SDS011;1094;49.902;10.876;2022-07-29T15:59:19;0.80;;;0.60;;